sensor_id;sensor_type;location;lat;lon;timestamp;P1;durP1;ratioP1;P2;durP2;ratioP2
47529;SDS011;33272;51.922;7.730;2024-03-23T00:52:38;3.53;;;2.40;;
47529;SDS011;33272;51.922;7.730;2024-03-23T00:55:04;3.73;;;2.90;;
47529;SDS011;33272;51.922;7.730;2024-03-23T00:57:31;3.03;;;2.30;;
47529;SDS011;33272;51.922;7.730;2024-03-23T00:59:57;5.03;;;2.83;;
47529;SDS011;33272;51.922;7.730;2024-03-23T01:02:23;4.33;;;2.67;;
47529;SDS011;33272;51.922;7.730;2024-03-23T01:04:49;3.10;;;2.70;;
47529;SDS011;33272;51.922;7.730;2024-03-23T01:07:15;3.57;;;2.30;;
47529;SDS011;33272;51.922;7.730;2024-03-23T01:09:42;4.37;;;3.10;;
47529;SDS011;33272;51.922;7.730;2024-03-23T01:12:09;3.33;;;2.50;;
47529;SDS011;33272;51.922;7.730;2024-03-23T01:14:34;3.37;;;2.70;;
47529;SDS011;33272;51.922;7.730;2024-03-23T01:17:01;4.30;;;2.37;;
47529;SDS011;33272;51.922;7.730;2024-03-23T01:19:27;4.63;;;2.80;;
47529;SDS011;33272;51.922;7.730;2024-03-23T01:21:54;4.70;;;2.53;;
47529;SDS011;33272;51.922;7.730;2024-03-23T01:24:19;3.13;;;2.57;;
47529;SDS011;33272;51.922;7.730;2024-03-23T01:26:47;4.13;;;2.37;;
47529;SDS011;33272;51.922;7.730;2024-03-23T01:29:13;3.77;;;2.30;;
47529;SDS011;33272;51.922;7.730;2024-03-23T01:31:39;3.77;;;2.47;;
47529;SDS011;33272;51.922;7.730;2024-03-23T01:34:05;2.73;;;2.43;;
47529;SDS011;33272;51.922;7.730;2024-03-23T01:36:31;2.90;;;2.30;;
47529;SDS011;33272;51.922;7.730;2024-03-23T01:38:57;3.17;;;2.50;;
47529;SDS011;33272;51.922;7.730;2024-03-23T01:41:23;3.57;;;2.33;;
47529;SDS011;33272;51.922;7.730;2024-03-23T01:43:51;2.83;;;2.20;;
47529;SDS011;33272;51.922;7.730;2024-03-23T01:46:17;3.97;;;2.90;;
47529;SDS011;33272;51.922;7.730;2024-03-23T01:48:43;3.23;;;2.17;;
47529;SDS011;33272;51.922;7.730;2024-03-23T01:51:09;2.93;;;2.40;;
47529;SDS011;33272;51.922;7.730;2024-03-23T01:53:36;2.80;;;2.17;;
47529;SDS011;33272;51.922;7.730;2024-03-23T01:56:03;2.97;;;2.40;;
47529;SDS011;33272;51.922;7.730;2024-03-23T01:58:28;2.93;;;2.20;;
47529;SDS011;33272;51.922;7.730;2024-03-23T02:00:58;2.83;;;2.33;;
47529;SDS011;33272;51.922;7.730;2024-03-23T02:03:24;4.03;;;2.50;;
47529;SDS011;33272;51.922;7.730;2024-03-23T02:05:51;2.93;;;2.40;;
47529;SDS011;33272;51.922;7.730;2024-03-23T02:08:18;2.00;;;1.80;;
47529;SDS011;33272;51.922;7.730;2024-03-23T02:10:46;3.53;;;2.70;;
47529;SDS011;33272;51.922;7.730;2024-03-23T02:13:13;2.60;;;2.20;;
47529;SDS011;33272;51.922;7.730;2024-03-23T02:15:40;2.80;;;2.20;;
47529;SDS011;33272;51.922;7.730;2024-03-23T02:18:08;3.37;;;2.23;;
47529;SDS011;33272;51.922;7.730;2024-03-23T02:20:34;4.03;;;2.50;;
47529;SDS011;33272;51.922;7.730;2024-03-23T02:23:02;3.80;;;2.23;;
47529;SDS011;33272;51.922;7.730;2024-03-23T02:25:28;3.57;;;2.10;;
47529;SDS011;33272;51.922;7.730;2024-03-23T02:27:54;2.83;;;2.20;;
47529;SDS011;33272;51.922;7.730;2024-03-23T02:30:20;3.20;;;2.40;;
47529;SDS011;33272;51.922;7.730;2024-03-23T02:32:46;2.70;;;1.97;;
47529;SDS011;33272;51.922;7.730;2024-03-23T02:35:13;2.43;;;1.93;;
47529;SDS011;33272;51.922;7.730;2024-03-23T02:37:39;3.60;;;2.30;;
47529;SDS011;33272;51.922;7.730;2024-03-23T02:40:07;3.30;;;2.07;;
47529;SDS011;33272;51.922;7.730;2024-03-23T02:42:33;3.37;;;2.00;;
47529;SDS011;33272;51.922;7.730;2024-03-23T02:44:59;3.63;;;2.93;;
47529;SDS011;33272;51.922;7.730;2024-03-23T02:47:25;2.77;;;2.13;;
47529;SDS011;33272;51.922;7.730;2024-03-23T02:49:51;4.30;;;2.60;;
47529;SDS011;33272;51.922;7.730;2024-03-23T02:52:17;2.80;;;2.30;;
47529;SDS011;33272;51.922;7.730;2024-03-23T02:54:43;3.10;;;2.33;;
47529;SDS011;33272;51.922;7.730;2024-03-23T02:57:11;2.40;;;2.20;;
47529;SDS011;33272;51.922;7.730;2024-03-23T02:59:38;2.87;;;2.23;;
47529;SDS011;33272;51.922;7.730;2024-03-23T03:02:04;3.90;;;2.70;;
47529;SDS011;33272;51.922;7.730;2024-03-23T03:04:30;3.60;;;2.13;;
47529;SDS011;33272;51.922;7.730;2024-03-23T03:06:56;3.50;;;2.63;;
47529;SDS011;33272;51.922;7.730;2024-03-23T03:09:23;2.93;;;2.20;;
47529;SDS011;33272;51.922;7.730;2024-03-23T03:11:49;3.57;;;2.20;;
47529;SDS011;33272;51.922;7.730;2024-03-23T03:14:17;3.03;;;2.13;;
47529;SDS011;33272;51.922;7.730;2024-03-23T03:16:42;2.37;;;2.10;;
47529;SDS011;33272;51.922;7.730;2024-03-23T03:19:09;2.60;;;2.20;;
47529;SDS011;33272;51.922;7.730;2024-03-23T03:21:35;3.03;;;2.47;;
47529;SDS011;33272;51.922;7.730;2024-03-23T03:24:03;3.37;;;2.13;;
47529;SDS011;33272;51.922;7.730;2024-03-23T03:26:31;2.53;;;2.10;;
47529;SDS011;33272;51.922;7.730;2024-03-23T03:28:57;2.90;;;2.40;;
47529;SDS011;33272;51.922;7.730;2024-03-23T03:31:24;4.57;;;2.70;;
47529;SDS011;33272;51.922;7.730;2024-03-23T03:33:51;3.00;;;2.43;;
47529;SDS011;33272;51.922;7.730;2024-03-23T03:36:16;2.37;;;1.90;;
47529;SDS011;33272;51.922;7.730;2024-03-23T03:38:43;2.77;;;2.13;;
47529;SDS011;33272;51.922;7.730;2024-03-23T03:41:09;2.63;;;2.43;;
47529;SDS011;33272;51.922;7.730;2024-03-23T03:43:35;3.60;;;2.50;;
47529;SDS011;33272;51.922;7.730;2024-03-23T03:46:01;3.37;;;2.20;;
47529;SDS011;33272;51.922;7.730;2024-03-23T03:48:29;3.40;;;2.30;;
47529;SDS011;33272;51.922;7.730;2024-03-23T03:50:55;2.00;;;1.80;;
47529;SDS011;33272;51.922;7.730;2024-03-23T03:53:21;2.17;;;1.97;;
47529;SDS011;33272;51.922;7.730;2024-03-23T03:55:47;2.63;;;2.40;;
47529;SDS011;33272;51.922;7.730;2024-03-23T03:58:14;3.43;;;1.90;;
47529;SDS011;33272;51.922;7.730;2024-03-23T04:00:39;2.53;;;2.20;;
47529;SDS011;33272;51.922;7.730;2024-03-23T04:03:06;3.70;;;2.20;;
47529;SDS011;33272;51.922;7.730;2024-03-23T04:05:32;3.10;;;2.10;;
47529;SDS011;33272;51.922;7.730;2024-03-23T04:07:59;2.97;;;2.10;;
47529;SDS011;33272;51.922;7.730;2024-03-23T04:10:24;2.33;;;1.97;;
47529;SDS011;33272;51.922;7.730;2024-03-23T04:12:51;4.17;;;2.10;;
47529;SDS011;33272;51.922;7.730;2024-03-23T04:15:17;2.10;;;1.90;;
47529;SDS011;33272;51.922;7.730;2024-03-23T04:17:43;3.70;;;2.10;;
47529;SDS011;33272;51.922;7.730;2024-03-23T04:20:09;2.80;;;2.17;;
47529;SDS011;33272;51.922;7.730;2024-03-23T04:22:40;2.77;;;1.90;;
47529;SDS011;33272;51.922;7.730;2024-03-23T04:25:06;2.60;;;2.10;;
47529;SDS011;33272;51.922;7.730;2024-03-23T04:27:32;2.60;;;2.07;;
47529;SDS011;33272;51.922;7.730;2024-03-23T04:29:58;3.83;;;2.47;;
47529;SDS011;33272;51.922;7.730;2024-03-23T04:32:26;2.57;;;2.10;;
47529;SDS011;33272;51.922;7.730;2024-03-23T04:34:52;2.80;;;1.80;;
47529;SDS011;33272;51.922;7.730;2024-03-23T04:37:18;3.57;;;2.37;;
47529;SDS011;33272;51.922;7.730;2024-03-23T04:39:46;2.73;;;2.10;;
47529;SDS011;33272;51.922;7.730;2024-03-23T04:42:14;3.40;;;1.97;;
47529;SDS011;33272;51.922;7.730;2024-03-23T04:44:40;2.83;;;2.00;;
47529;SDS011;33272;51.922;7.730;2024-03-23T04:47:07;2.43;;;2.00;;
47529;SDS011;33272;51.922;7.730;2024-03-23T04:49:34;2.10;;;1.80;;
47529;SDS011;33272;51.922;7.730;2024-03-23T04:52:01;2.30;;;2.00;;
47529;SDS011;33272;51.922;7.730;2024-03-23T04:54:28;2.40;;;1.63;;
47529;SDS011;33272;51.922;7.730;2024-03-23T04:56:56;2.17;;;1.60;;
47529;SDS011;33272;51.922;7.730;2024-03-23T04:59:22;3.17;;;1.87;;
47529;SDS011;33272;51.922;7.730;2024-03-23T05:01:48;2.17;;;1.90;;
47529;SDS011;33272;51.922;7.730;2024-03-23T05:04:14;3.00;;;2.13;;
47529;SDS011;33272;51.922;7.730;2024-03-23T05:06:40;3.00;;;2.17;;
47529;SDS011;33272;51.922;7.730;2024-03-23T05:09:06;3.20;;;1.90;;
47529;SDS011;33272;51.922;7.730;2024-03-23T05:11:36;2.20;;;1.73;;
47529;SDS011;33272;51.922;7.730;2024-03-23T05:14:03;2.03;;;1.83;;
47529;SDS011;33272;51.922;7.730;2024-03-23T05:16:30;3.03;;;2.40;;
47529;SDS011;33272;51.922;7.730;2024-03-23T05:18:55;2.70;;;2.20;;
47529;SDS011;33272;51.922;7.730;2024-03-23T05:21:22;2.53;;;1.90;;
47529;SDS011;33272;51.922;7.730;2024-03-23T05:23:47;2.27;;;1.87;;
47529;SDS011;33272;51.922;7.730;2024-03-23T05:26:14;2.73;;;1.80;;
47529;SDS011;33272;51.922;7.730;2024-03-23T05:28:39;2.47;;;2.20;;
47529;SDS011;33272;51.922;7.730;2024-03-23T05:31:07;2.70;;;2.20;;
47529;SDS011;33272;51.922;7.730;2024-03-23T05:33:34;2.93;;;1.63;;
47529;SDS011;33272;51.922;7.730;2024-03-23T05:36:01;2.57;;;1.93;;
47529;SDS011;33272;51.922;7.730;2024-03-23T05:38:28;2.13;;;1.60;;
47529;SDS011;33272;51.922;7.730;2024-03-23T05:40:55;2.03;;;1.83;;
47529;SDS011;33272;51.922;7.730;2024-03-23T05:43:21;2.53;;;2.00;;
47529;SDS011;33272;51.922;7.730;2024-03-23T05:45:52;2.50;;;1.60;;
47529;SDS011;33272;51.922;7.730;2024-03-23T05:48:20;2.50;;;1.90;;
47529;SDS011;33272;51.922;7.730;2024-03-23T05:50:46;1.90;;;1.70;;
47529;SDS011;33272;51.922;7.730;2024-03-23T05:53:12;2.10;;;1.90;;
47529;SDS011;33272;51.922;7.730;2024-03-23T05:55:39;2.30;;;1.70;;
47529;SDS011;33272;51.922;7.730;2024-03-23T05:58:04;2.00;;;1.80;;
47529;SDS011;33272;51.922;7.730;2024-03-23T06:00:31;3.03;;;2.00;;
47529;SDS011;33272;51.922;7.730;2024-03-23T06:02:56;2.77;;;2.30;;
47529;SDS011;33272;51.922;7.730;2024-03-23T06:05:24;1.53;;;1.43;;
47529;SDS011;33272;51.922;7.730;2024-03-23T06:07:50;2.13;;;1.87;;
47529;SDS011;33272;51.922;7.730;2024-03-23T06:10:16;1.90;;;1.70;;
47529;SDS011;33272;51.922;7.730;2024-03-23T06:12:42;2.93;;;1.93;;
47529;SDS011;33272;51.922;7.730;2024-03-23T06:15:09;2.03;;;1.73;;
47529;SDS011;33272;51.922;7.730;2024-03-23T06:17:35;2.20;;;1.73;;
47529;SDS011;33272;51.922;7.730;2024-03-23T06:20:02;2.63;;;1.80;;
47529;SDS011;33272;51.922;7.730;2024-03-23T06:22:30;2.17;;;1.70;;
47529;SDS011;33272;51.922;7.730;2024-03-23T06:24:56;2.40;;;1.80;;
47529;SDS011;33272;51.922;7.730;2024-03-23T06:27:22;2.53;;;1.90;;
47529;SDS011;33272;51.922;7.730;2024-03-23T06:29:48;2.33;;;2.00;;
47529;SDS011;33272;51.922;7.730;2024-03-23T06:32:14;2.40;;;1.70;;
47529;SDS011;33272;51.922;7.730;2024-03-23T06:34:41;2.50;;;1.67;;
47529;SDS011;33272;51.922;7.730;2024-03-23T06:37:06;1.90;;;1.60;;
47529;SDS011;33272;51.922;7.730;2024-03-23T06:39:36;1.90;;;1.57;;
47529;SDS011;33272;51.922;7.730;2024-03-23T06:42:01;2.00;;;1.70;;
47529;SDS011;33272;51.922;7.730;2024-03-23T06:44:28;2.87;;;1.90;;
47529;SDS011;33272;51.922;7.730;2024-03-23T06:46:54;2.20;;;1.57;;
47529;SDS011;33272;51.922;7.730;2024-03-23T06:49:20;2.20;;;1.70;;
47529;SDS011;33272;51.922;7.730;2024-03-23T06:51:46;1.90;;;1.70;;
47529;SDS011;33272;51.922;7.730;2024-03-23T06:54:12;2.07;;;1.73;;
47529;SDS011;33272;51.922;7.730;2024-03-23T06:56:39;1.97;;;1.60;;
47529;SDS011;33272;51.922;7.730;2024-03-23T06:59:06;1.73;;;1.40;;
47529;SDS011;33272;51.922;7.730;2024-03-23T07:01:32;2.13;;;1.60;;
47529;SDS011;33272;51.922;7.730;2024-03-23T07:03:59;2.67;;;1.80;;
47529;SDS011;33272;51.922;7.730;2024-03-23T07:06:24;2.27;;;1.77;;
47529;SDS011;33272;51.922;7.730;2024-03-23T07:08:52;2.00;;;1.53;;
47529;SDS011;33272;51.922;7.730;2024-03-23T07:11:20;2.00;;;1.67;;
47529;SDS011;33272;51.922;7.730;2024-03-23T07:13:49;2.40;;;1.70;;
47529;SDS011;33272;51.922;7.730;2024-03-23T07:16:15;2.63;;;1.80;;
47529;SDS011;33272;51.922;7.730;2024-03-23T07:18:42;2.23;;;1.50;;
47529;SDS011;33272;51.922;7.730;2024-03-23T07:21:08;2.63;;;1.80;;
47529;SDS011;33272;51.922;7.730;2024-03-23T07:23:34;1.83;;;1.60;;
47529;SDS011;33272;51.922;7.730;2024-03-23T07:26:00;2.73;;;1.50;;
47529;SDS011;33272;51.922;7.730;2024-03-23T07:28:29;2.63;;;1.53;;
47529;SDS011;33272;51.922;7.730;2024-03-23T07:31:05;2.27;;;1.77;;
47529;SDS011;33272;51.922;7.730;2024-03-23T07:33:34;3.63;;;1.57;;
47529;SDS011;33272;51.922;7.730;2024-03-23T07:36:00;1.70;;;1.50;;
47529;SDS011;33272;51.922;7.730;2024-03-23T07:38:27;1.40;;;1.30;;
47529;SDS011;33272;51.922;7.730;2024-03-23T07:41:02;2.40;;;1.50;;
47529;SDS011;33272;51.922;7.730;2024-03-23T07:43:29;2.20;;;1.60;;
47529;SDS011;33272;51.922;7.730;2024-03-23T07:45:54;2.10;;;1.63;;
47529;SDS011;33272;51.922;7.730;2024-03-23T07:48:22;2.33;;;1.50;;
47529;SDS011;33272;51.922;7.730;2024-03-23T07:50:55;2.27;;;1.60;;
47529;SDS011;33272;51.922;7.730;2024-03-23T07:53:23;1.43;;;1.33;;
47529;SDS011;33272;51.922;7.730;2024-03-23T07:55:52;2.27;;;1.70;;
47529;SDS011;33272;51.922;7.730;2024-03-23T07:58:20;2.73;;;1.60;;
47529;SDS011;33272;51.922;7.730;2024-03-23T08:00:45;1.93;;;1.50;;
47529;SDS011;33272;51.922;7.730;2024-03-23T08:03:12;2.03;;;1.50;;
47529;SDS011;33272;51.922;7.730;2024-03-23T08:05:39;1.63;;;1.53;;
47529;SDS011;33272;51.922;7.730;2024-03-23T08:08:05;2.47;;;2.00;;
47529;SDS011;33272;51.922;7.730;2024-03-23T08:10:31;1.70;;;1.60;;
47529;SDS011;33272;51.922;7.730;2024-03-23T08:12:57;1.93;;;1.40;;
47529;SDS011;33272;51.922;7.730;2024-03-23T08:15:23;1.63;;;1.30;;
47529;SDS011;33272;51.922;7.730;2024-03-23T08:17:49;1.40;;;1.27;;
47529;SDS011;33272;51.922;7.730;2024-03-23T08:20:15;1.67;;;1.57;;
47529;SDS011;33272;51.922;7.730;2024-03-23T08:22:43;2.13;;;1.50;;
47529;SDS011;33272;51.922;7.730;2024-03-23T08:25:09;2.10;;;1.53;;
47529;SDS011;33272;51.922;7.730;2024-03-23T08:27:35;2.40;;;1.33;;
47529;SDS011;33272;51.922;7.730;2024-03-23T08:30:00;2.20;;;1.40;;
47529;SDS011;33272;51.922;7.730;2024-03-23T08:32:27;1.70;;;1.30;;
47529;SDS011;33272;51.922;7.730;2024-03-23T08:34:53;1.70;;;1.40;;
47529;SDS011;33272;51.922;7.730;2024-03-23T08:37:20;1.70;;;1.60;;
47529;SDS011;33272;51.922;7.730;2024-03-23T08:39:47;1.70;;;1.40;;
47529;SDS011;33272;51.922;7.730;2024-03-23T08:42:13;1.83;;;1.57;;
47529;SDS011;33272;51.922;7.730;2024-03-23T08:44:39;1.73;;;1.50;;
47529;SDS011;33272;51.922;7.730;2024-03-23T08:47:08;1.83;;;1.60;;
47529;SDS011;33272;51.922;7.730;2024-03-23T08:49:33;2.03;;;1.30;;
47529;SDS011;33272;51.922;7.730;2024-03-23T08:52:00;2.13;;;1.63;;
47529;SDS011;33272;51.922;7.730;2024-03-23T08:54:25;1.23;;;1.13;;
47529;SDS011;33272;51.922;7.730;2024-03-23T08:56:55;2.63;;;1.30;;
47529;SDS011;33272;51.922;7.730;2024-03-23T08:59:21;1.73;;;1.63;;
47529;SDS011;33272;51.922;7.730;2024-03-23T09:01:48;2.57;;;1.77;;
47529;SDS011;33272;51.922;7.730;2024-03-23T09:04:14;2.93;;;1.73;;
47529;SDS011;33272;51.922;7.730;2024-03-23T09:06:42;3.20;;;1.90;;
47529;SDS011;33272;51.922;7.730;2024-03-23T09:09:07;1.70;;;1.43;;
47529;SDS011;33272;51.922;7.730;2024-03-23T09:11:34;2.80;;;1.50;;
47529;SDS011;33272;51.922;7.730;2024-03-23T09:14:01;2.57;;;1.83;;
47529;SDS011;33272;51.922;7.730;2024-03-23T09:16:27;2.83;;;1.33;;
47529;SDS011;33272;51.922;7.730;2024-03-23T09:18:53;3.20;;;1.53;;
47529;SDS011;33272;51.922;7.730;2024-03-23T09:21:19;2.67;;;1.33;;
47529;SDS011;33272;51.922;7.730;2024-03-23T09:23:45;2.90;;;1.70;;
47529;SDS011;33272;51.922;7.730;2024-03-23T09:26:12;2.60;;;1.43;;
47529;SDS011;33272;51.922;7.730;2024-03-23T09:28:38;2.83;;;1.87;;
47529;SDS011;33272;51.922;7.730;2024-03-23T09:31:06;3.57;;;1.80;;
47529;SDS011;33272;51.922;7.730;2024-03-23T09:33:33;2.33;;;1.63;;
47529;SDS011;33272;51.922;7.730;2024-03-23T09:36:02;2.53;;;1.70;;
47529;SDS011;33272;51.922;7.730;2024-03-23T09:38:28;4.20;;;1.60;;
47529;SDS011;33272;51.922;7.730;2024-03-23T09:40:55;3.60;;;1.77;;
47529;SDS011;33272;51.922;7.730;2024-03-23T09:43:21;2.37;;;1.57;;
47529;SDS011;33272;51.922;7.730;2024-03-23T09:45:48;2.67;;;1.67;;
47529;SDS011;33272;51.922;7.730;2024-03-23T09:48:15;3.27;;;1.67;;
47529;SDS011;33272;51.922;7.730;2024-03-23T09:50:43;3.50;;;1.90;;
47529;SDS011;33272;51.922;7.730;2024-03-23T09:53:10;5.20;;;1.90;;
47529;SDS011;33272;51.922;7.730;2024-03-23T09:55:37;4.00;;;1.90;;
47529;SDS011;33272;51.922;7.730;2024-03-23T09:58:04;2.10;;;1.57;;
47529;SDS011;33272;51.922;7.730;2024-03-23T10:00:31;3.33;;;1.90;;
47529;SDS011;33272;51.922;7.730;2024-03-23T10:02:57;3.50;;;2.10;;
47529;SDS011;33272;51.922;7.730;2024-03-23T10:05:28;2.63;;;2.17;;
47529;SDS011;33272;51.922;7.730;2024-03-23T10:07:56;2.07;;;1.80;;
47529;SDS011;33272;51.922;7.730;2024-03-23T10:10:24;3.30;;;2.10;;
47529;SDS011;33272;51.922;7.730;2024-03-23T10:12:50;4.60;;;2.20;;
47529;SDS011;33272;51.922;7.730;2024-03-23T10:15:18;4.67;;;2.43;;
47529;SDS011;33272;51.922;7.730;2024-03-23T10:17:45;2.80;;;1.97;;
47529;SDS011;33272;51.922;7.730;2024-03-23T10:20:11;3.27;;;1.87;;
47529;SDS011;33272;51.922;7.730;2024-03-23T10:22:38;3.47;;;2.20;;
47529;SDS011;33272;51.922;7.730;2024-03-23T10:25:09;3.97;;;1.93;;
47529;SDS011;33272;51.922;7.730;2024-03-23T10:27:35;2.17;;;1.90;;
47529;SDS011;33272;51.922;7.730;2024-03-23T10:30:08;3.60;;;2.23;;
47529;SDS011;33272;51.922;7.730;2024-03-23T10:32:35;3.33;;;1.93;;
47529;SDS011;33272;51.922;7.730;2024-03-23T10:35:14;3.27;;;2.10;;
47529;SDS011;33272;51.922;7.730;2024-03-23T10:37:42;5.03;;;2.47;;
47529;SDS011;33272;51.922;7.730;2024-03-23T10:40:09;3.43;;;1.93;;
47529;SDS011;33272;51.922;7.730;2024-03-23T10:42:37;3.60;;;2.30;;
47529;SDS011;33272;51.922;7.730;2024-03-23T10:45:04;3.30;;;2.13;;
47529;SDS011;33272;51.922;7.730;2024-03-23T10:47:30;3.73;;;2.30;;
47529;SDS011;33272;51.922;7.730;2024-03-23T10:49:57;3.37;;;2.07;;
47529;SDS011;33272;51.922;7.730;2024-03-23T10:52:23;3.27;;;2.10;;
47529;SDS011;33272;51.922;7.730;2024-03-23T10:54:52;3.80;;;1.83;;
47529;SDS011;33272;51.922;7.730;2024-03-23T10:57:17;3.40;;;2.00;;
47529;SDS011;33272;51.922;7.730;2024-03-23T10:59:47;2.60;;;1.87;;
47529;SDS011;33272;51.922;7.730;2024-03-23T11:02:18;2.30;;;1.57;;
47529;SDS011;33272;51.922;7.730;2024-03-23T11:04:46;3.80;;;2.10;;
47529;SDS011;33272;51.922;7.730;2024-03-23T11:07:28;2.87;;;1.80;;
47529;SDS011;33272;51.922;7.730;2024-03-23T11:09:58;2.40;;;1.93;;
47529;SDS011;33272;51.922;7.730;2024-03-23T11:12:27;2.67;;;1.60;;
47529;SDS011;33272;51.922;7.730;2024-03-23T11:14:57;2.83;;;2.03;;
47529;SDS011;33272;51.922;7.730;2024-03-23T11:17:25;3.90;;;2.53;;
47529;SDS011;33272;51.922;7.730;2024-03-23T11:19:53;5.13;;;2.27;;
47529;SDS011;33272;51.922;7.730;2024-03-23T11:25:13;3.30;;;1.90;;
47529;SDS011;33272;51.922;7.730;2024-03-23T11:27:40;3.27;;;2.10;;
47529;SDS011;33272;51.922;7.730;2024-03-23T11:30:16;2.90;;;1.70;;
47529;SDS011;33272;51.922;7.730;2024-03-23T11:32:44;8.20;;;2.30;;
47529;SDS011;33272;51.922;7.730;2024-03-23T11:35:24;4.43;;;2.00;;
47529;SDS011;33272;51.922;7.730;2024-03-23T11:38:01;7.93;;;2.77;;
47529;SDS011;33272;51.922;7.730;2024-03-23T11:40:30;29.80;;;10.77;;
47529;SDS011;33272;51.922;7.730;2024-03-23T11:42:56;44.93;;;14.67;;
47529;SDS011;33272;51.922;7.730;2024-03-23T11:45:24;45.30;;;12.80;;
47529;SDS011;33272;51.922;7.730;2024-03-23T11:48:01;40.70;;;14.20;;
47529;SDS011;33272;51.922;7.730;2024-03-23T11:50:29;48.33;;;13.30;;
47529;SDS011;33272;51.922;7.730;2024-03-23T11:53:07;57.53;;;13.37;;
47529;SDS011;33272;51.922;7.730;2024-03-23T11:55:50;34.43;;;10.07;;
47529;SDS011;33272;51.922;7.730;2024-03-23T11:58:17;27.50;;;8.73;;
47529;SDS011;33272;51.922;7.730;2024-03-23T12:00:50;27.23;;;8.23;;
47529;SDS011;33272;51.922;7.730;2024-03-23T12:03:17;19.07;;;7.17;;
47529;SDS011;33272;51.922;7.730;2024-03-23T12:05:47;19.90;;;6.93;;
47529;SDS011;33272;51.922;7.730;2024-03-23T12:08:17;22.97;;;6.80;;
47529;SDS011;33272;51.922;7.730;2024-03-23T12:10:49;18.10;;;5.97;;
47529;SDS011;33272;51.922;7.730;2024-03-23T12:13:18;17.37;;;6.20;;
47529;SDS011;33272;51.922;7.730;2024-03-23T12:15:46;16.53;;;6.30;;
47529;SDS011;33272;51.922;7.730;2024-03-23T12:18:13;12.67;;;4.83;;
47529;SDS011;33272;51.922;7.730;2024-03-23T12:20:39;16.87;;;5.97;;
47529;SDS011;33272;51.922;7.730;2024-03-23T12:23:06;17.97;;;5.03;;
47529;SDS011;33272;51.922;7.730;2024-03-23T12:25:34;13.63;;;4.60;;
47529;SDS011;33272;51.922;7.730;2024-03-23T12:28:01;11.43;;;5.23;;
47529;SDS011;33272;51.922;7.730;2024-03-23T12:30:31;9.90;;;4.23;;
47529;SDS011;33272;51.922;7.730;2024-03-23T12:32:56;13.03;;;4.70;;
47529;SDS011;33272;51.922;7.730;2024-03-23T12:35:23;16.13;;;4.87;;
47529;SDS011;33272;51.922;7.730;2024-03-23T12:37:48;9.87;;;4.27;;
47529;SDS011;33272;51.922;7.730;2024-03-23T12:40:15;10.93;;;4.53;;
47529;SDS011;33272;51.922;7.730;2024-03-23T12:42:41;10.07;;;3.67;;
47529;SDS011;33272;51.922;7.730;2024-03-23T12:45:09;11.43;;;4.00;;
47529;SDS011;33272;51.922;7.730;2024-03-23T12:47:35;10.97;;;3.67;;
47529;SDS011;33272;51.922;7.730;2024-03-23T12:50:02;10.13;;;4.10;;
47529;SDS011;33272;51.922;7.730;2024-03-23T12:52:28;7.93;;;3.17;;
47529;SDS011;33272;51.922;7.730;2024-03-23T12:54:55;8.43;;;3.90;;
47529;SDS011;33272;51.922;7.730;2024-03-23T12:57:21;13.00;;;4.47;;
47529;SDS011;33272;51.922;7.730;2024-03-23T12:59:49;11.50;;;3.53;;
47529;SDS011;33272;51.922;7.730;2024-03-23T13:02:17;11.43;;;3.70;;
47529;SDS011;33272;51.922;7.730;2024-03-23T13:04:45;10.83;;;3.93;;
47529;SDS011;33272;51.922;7.730;2024-03-23T13:07:11;7.07;;;3.63;;
47529;SDS011;33272;51.922;7.730;2024-03-23T13:09:38;8.90;;;3.27;;
47529;SDS011;33272;51.922;7.730;2024-03-23T13:12:04;9.27;;;2.87;;
47529;SDS011;33272;51.922;7.730;2024-03-23T13:14:30;7.40;;;3.53;;
47529;SDS011;33272;51.922;7.730;2024-03-23T13:16:56;8.40;;;4.17;;
47529;SDS011;33272;51.922;7.730;2024-03-23T13:19:24;6.97;;;2.87;;
47529;SDS011;33272;51.922;7.730;2024-03-23T13:21:52;5.77;;;3.27;;
47529;SDS011;33272;51.922;7.730;2024-03-23T13:24:21;8.93;;;3.17;;
47529;SDS011;33272;51.922;7.730;2024-03-23T13:26:47;7.67;;;3.43;;
47529;SDS011;33272;51.922;7.730;2024-03-23T13:29:13;7.23;;;3.03;;
47529;SDS011;33272;51.922;7.730;2024-03-23T13:31:39;6.23;;;3.00;;
47529;SDS011;33272;51.922;7.730;2024-03-23T13:34:05;5.57;;;3.07;;
47529;SDS011;33272;51.922;7.730;2024-03-23T13:36:32;5.73;;;2.63;;
47529;SDS011;33272;51.922;7.730;2024-03-23T13:39:00;6.37;;;2.60;;
47529;SDS011;33272;51.922;7.730;2024-03-23T13:41:30;6.73;;;2.90;;
47529;SDS011;33272;51.922;7.730;2024-03-23T13:43:57;5.77;;;2.63;;
47529;SDS011;33272;51.922;7.730;2024-03-23T13:46:25;8.83;;;3.23;;
47529;SDS011;33272;51.922;7.730;2024-03-23T13:48:56;7.40;;;2.80;;
47529;SDS011;33272;51.922;7.730;2024-03-23T13:51:23;5.23;;;2.50;;
47529;SDS011;33272;51.922;7.730;2024-03-23T13:53:53;6.00;;;2.93;;
47529;SDS011;33272;51.922;7.730;2024-03-23T13:56:25;7.07;;;2.63;;
47529;SDS011;33272;51.922;7.730;2024-03-23T13:58:53;4.63;;;2.40;;
47529;SDS011;33272;51.922;7.730;2024-03-23T14:01:19;7.10;;;2.93;;
47529;SDS011;33272;51.922;7.730;2024-03-23T14:03:46;5.40;;;2.50;;
47529;SDS011;33272;51.922;7.730;2024-03-23T14:06:11;6.03;;;2.83;;
47529;SDS011;33272;51.922;7.730;2024-03-23T14:08:38;5.87;;;3.27;;
47529;SDS011;33272;51.922;7.730;2024-03-23T14:11:05;5.33;;;2.27;;
47529;SDS011;33272;51.922;7.730;2024-03-23T14:13:32;12.80;;;2.90;;
47529;SDS011;33272;51.922;7.730;2024-03-23T14:15:58;6.47;;;2.40;;
47529;SDS011;33272;51.922;7.730;2024-03-23T14:18:25;6.50;;;2.47;;
47529;SDS011;33272;51.922;7.730;2024-03-23T14:20:51;4.63;;;2.13;;
47529;SDS011;33272;51.922;7.730;2024-03-23T14:23:19;5.80;;;2.17;;
47529;SDS011;33272;51.922;7.730;2024-03-23T14:25:44;8.17;;;2.60;;
47529;SDS011;33272;51.922;7.730;2024-03-23T14:28:12;4.93;;;2.57;;
47529;SDS011;33272;51.922;7.730;2024-03-23T14:30:41;4.77;;;2.50;;
47529;SDS011;33272;51.922;7.730;2024-03-23T14:33:08;5.23;;;2.43;;
47529;SDS011;33272;51.922;7.730;2024-03-23T14:35:34;8.27;;;2.60;;
47529;SDS011;33272;51.922;7.730;2024-03-23T14:38:00;2.93;;;1.87;;
47529;SDS011;33272;51.922;7.730;2024-03-23T14:40:26;7.40;;;2.63;;
47529;SDS011;33272;51.922;7.730;2024-03-23T14:42:53;5.33;;;2.47;;
47529;SDS011;33272;51.922;7.730;2024-03-23T14:45:20;6.40;;;2.40;;
47529;SDS011;33272;51.922;7.730;2024-03-23T14:47:47;4.47;;;2.17;;
47529;SDS011;33272;51.922;7.730;2024-03-23T14:50:12;3.60;;;2.00;;
47529;SDS011;33272;51.922;7.730;2024-03-23T14:52:40;6.80;;;2.20;;
47529;SDS011;33272;51.922;7.730;2024-03-23T14:55:06;5.57;;;2.40;;
47529;SDS011;33272;51.922;7.730;2024-03-23T14:57:34;5.13;;;2.10;;
47529;SDS011;33272;51.922;7.730;2024-03-23T15:00:00;7.77;;;1.83;;
47529;SDS011;33272;51.922;7.730;2024-03-23T15:02:27;4.67;;;2.40;;
47529;SDS011;33272;51.922;7.730;2024-03-23T15:04:55;4.23;;;2.27;;
47529;SDS011;33272;51.922;7.730;2024-03-23T15:07:22;5.07;;;2.33;;
47529;SDS011;33272;51.922;7.730;2024-03-23T15:09:48;5.00;;;2.40;;
47529;SDS011;33272;51.922;7.730;2024-03-23T15:12:14;6.30;;;2.20;;
47529;SDS011;33272;51.922;7.730;2024-03-23T15:14:40;6.23;;;2.40;;
47529;SDS011;33272;51.922;7.730;2024-03-23T15:17:06;5.23;;;2.60;;
47529;SDS011;33272;51.922;7.730;2024-03-23T15:19:35;4.47;;;1.93;;
47529;SDS011;33272;51.922;7.730;2024-03-23T15:22:02;3.97;;;1.80;;
47529;SDS011;33272;51.922;7.730;2024-03-23T15:24:28;4.53;;;2.17;;
47529;SDS011;33272;51.922;7.730;2024-03-23T15:26:56;3.43;;;1.90;;
47529;SDS011;33272;51.922;7.730;2024-03-23T15:29:21;4.77;;;1.90;;
47529;SDS011;33272;51.922;7.730;2024-03-23T15:31:48;3.47;;;1.97;;
47529;SDS011;33272;51.922;7.730;2024-03-23T15:34:17;6.60;;;2.60;;
47529;SDS011;33272;51.922;7.730;2024-03-23T15:36:45;3.57;;;1.83;;
47529;SDS011;33272;51.922;7.730;2024-03-23T15:39:11;7.57;;;1.80;;